Time;durP1;ratioP1;P1;durP2;ratioP2;P2;SDS_P1;SDS_P2;PMS_P1;PMS_P2;Temp;Humidity;BMP_temperature;BMP_pressure;BME280_temperature;BME280_humidity;BME280_pressure;Samples;Min_cycle;Max_cycle;Signal;HPM_P1;HPM_P2
2021/12/21 00:05:59;;;;;;;9;20.7;;;;;;;-1.3;75.9;99250;;;;
2021/12/21 00:16:09;;;;;;;9;20.7;;;;;;;-1.3;75.9;99250;;;;
2021/12/21 00:25:59;;;;;;;9;20.7;;;;;;;-1.4;76.4;99260;;;;
2021/12/21 00:36:59;;;;;;;7.7;14;;;;;;;-1.4;76.8;99280;;;;
2021/12/21 00:47:59;;;;;;;7.7;14;;;;;;;-1.5;77.9;99290;;;;
2021/12/21 00:57:59;;;;;;;7.7;14;;;;;;;-1.6;78.1;99290;;;;
2021/12/21 01:09:09;;;;;;;9.1;15.9;;;;;;;-1.7;77.6;99290;;;;
2021/12/21 01:19:07;;;;;;;9.1;15.9;;;;;;;-1.8;77.4;99300;;;;
2021/12/21 01:30:08;;;;;;;9.1;15.9;;;;;;;-1.8;77.9;99300;;;;
2021/12/21 01:41:06;;;;;;;9.4;19;;;;;;;-1.7;78.1;99300;;;;
2021/12/21 01:50:59;;;;;;;9.4;19;;;;;;;-1.8;78;99300;;;;
2021/12/21 02:00:59;;;;;;;9.4;19;;;;;;;-1.7;77.7;99300;;;;
2021/12/21 02:11:59;;;;;;;8.6;14.8;;;;;;;-1.7;77.1;99300;;;;
2021/12/21 02:22:09;;;;;;;8.6;14.8;;;;;;;-1.7;76.6;99300;;;;
2021/12/21 02:31:59;;;;;;;8.6;14.8;;;;;;;-1.7;76.7;99290;;;;
2021/12/21 02:42:59;;;;;;;10;19.5;;;;;;;-1.6;76.8;99300;;;;
2021/12/21 02:53:00;;;;;;;10;19.5;;;;;;;-1.7;77.2;99290;;;;
2021/12/21 03:03:59;;;;;;;10;19.5;;;;;;;-1.7;77.1;99300;;;;
2021/12/21 03:14:08;;;;;;;9.6;17.8;;;;;;;-1.6;77;99300;;;;
2021/12/21 03:24:59;;;;;;;9.6;17.8;;;;;;;-1.8;77.5;99280;;;;
2021/12/21 03:34:59;;;;;;;9.6;17.8;;;;;;;-1.7;77.4;99280;;;;
2021/12/21 03:44:59;;;;;;;8.5;17.3;;;;;;;-1.7;77.1;99280;;;;
2021/12/21 03:55:00;;;;;;;8.5;17.3;;;;;;;-1.7;76.9;99290;;;;
2021/12/21 04:05:59;;;;;;;7.9;15.9;;;;;;;-1.8;76.9;99300;;;;
2021/12/21 04:16:01;;;;;;;7.9;15.9;;;;;;;-1.7;76.8;99300;;;;
2021/12/21 04:26:59;;;;;;;7.9;15.9;;;;;;;-1.7;76.8;99310;;;;
2021/12/21 04:36:59;;;;;;;7;11.8;;;;;;;-1.7;77;99300;;;;
2021/12/21 04:47:00;;;;;;;7;11.8;;;;;;;-1.8;77.2;99300;;;;
2021/12/21 04:56:59;;;;;;;7;11.8;;;;;;;-1.7;77.2;99310;;;;
2021/12/21 05:06:59;;;;;;;8.9;14.2;;;;;;;-1.7;77.7;99330;;;;
2021/12/21 05:17:59;;;;;;;8.9;14.2;;;;;;;-1.7;78.4;99330;;;;
2021/12/21 05:27:59;;;;;;;8.9;14.2;;;;;;;-1.7;79;99330;;;;
2021/12/21 05:39:03;;;;;;;7.9;15.4;;;;;;;-1.6;78.9;99330;;;;
2021/12/21 05:48:59;;;;;;;7.9;15.4;;;;;;;-1.6;79.1;99330;;;;
2021/12/21 05:59:02;;;;;;;7.9;15.4;;;;;;;-1.5;79;99330;;;;
2021/12/21 06:10:07;;;;;;;8.4;17;;;;;;;-1.4;78.9;99340;;;;
2021/12/21 06:30:00;;;;;;;8.4;17;;;;;;;-1.3;79.6;99350;;;;
2021/12/21 06:40:59;;;;;;;10.1;16.9;;;;;;;-1.2;79.7;99360;;;;
2021/12/21 06:52:00;;;;;;;10.1;16.9;;;;;;;-1.1;79.4;99370;;;;
2021/12/21 07:01:59;;;;;;;10.1;16.9;;;;;;;-1.3;80.5;99380;;;;
2021/12/21 07:12:18;;;;;;;9.1;15.6;;;;;;;-1.4;79.8;99400;;;;
2021/12/21 07:22:59;;;;;;;9.1;15.6;;;;;;;-1.5;81.1;99410;;;;
2021/12/21 07:32:59;;;;;;;9.1;15.6;;;;;;;-1.5;81.6;99410;;;;
2021/12/21 07:44:00;;;;;;;7.3;13.5;;;;;;;-1.3;79.9;99420;;;;
2021/12/21 07:53:59;;;;;;;7.3;13.5;;;;;;;-1.2;79;99420;;;;
2021/12/21 08:03:59;;;;;;;7.3;13.5;;;;;;;-1.2;77.1;99430;;;;
2021/12/21 08:14:59;;;;;;;5.6;10.8;;;;;;;-0.9;76.5;99440;;;;
2021/12/21 08:25:00;;;;;;;5.6;10.8;;;;;;;-0.9;74.6;99440;;;;
2021/12/21 08:36:00;;;;;;;4.7;9.4;;;;;;;-0.8;73.5;99440;;;;
2021/12/21 08:46:00;;;;;;;4.7;9.4;;;;;;;-0.9;72.2;99450;;;;
2021/12/21 08:55:59;;;;;;;4.7;9.4;;;;;;;-1.1;71.1;99470;;;;
2021/12/21 09:06:59;;;;;;;3.2;6.7;;;;;;;-1.3;69.8;99470;;;;
2021/12/21 09:16:59;;;;;;;3.2;6.7;;;;;;;-0.8;70;99460;;;;
2021/12/21 09:28:00;;;;;;;3.2;6.7;;;;;;;-0.6;69.4;99470;;;;
2021/12/21 09:38:59;;;;;;;4.9;8.3;;;;;;;-0.5;70.1;99470;;;;
2021/12/21 09:49:59;;;;;;;4.9;8.3;;;;;;;-0.2;69.4;99470;;;;
2021/12/21 10:00:00;;;;;;;4.9;8.3;;;;;;;-0.1;68.2;99470;;;;
2021/12/21 10:11:00;;;;;;;6.5;12.5;;;;;;;-0.3;68;99470;;;;
2021/12/21 10:21:00;;;;;;;6.5;12.5;;;;;;;-0.1;66.5;99470;;;;
2021/12/21 10:32:00;;;;;;;6.5;12.5;;;;;;;0.6;65.3;99470;;;;
2021/12/21 10:43:00;;;;;;;7.9;13;;;;;;;1.3;60.6;99450;;;;
2021/12/21 10:53:00;;;;;;;7.9;13;;;;;;;0.1;60.5;99470;;;;
2021/12/21 11:04:00;;;;;;;4.1;7.8;;;;;;;-0.3;62.2;99470;;;;
2021/12/21 11:14:00;;;;;;;4.1;7.8;;;;;;;-0.4;63.5;99460;;;;
2021/12/21 11:25:00;;;;;;;4.1;7.8;;;;;;;0.9;60.9;99460;;;;
2021/12/21 11:37:20;;;;;;;4.8;10.9;;;;;;;0.9;61.3;99450;;;;
2021/12/21 11:46:00;;;;;;;4.8;10.9;;;;;;;-0.1;56;99450;;;;
2021/12/21 11:56:00;;;;;;;4.8;10.9;;;;;;;-0.5;55.7;99460;;;;
2021/12/21 12:06:00;;;;;;;3.5;5.7;;;;;;;-0.7;56.9;99460;;;;
2021/12/21 12:16:00;;;;;;;3.5;5.7;;;;;;;-0.5;54.3;99460;;;;
2021/12/21 12:27:00;;;;;;;3.5;5.7;;;;;;;0.5;52.5;99450;;;;
2021/12/21 12:38:00;;;;;;;2.1;3.7;;;;;;;1.4;48.2;99450;;;;
2021/12/21 12:49:00;;;;;;;2.1;3.7;;;;;;;0.7;47.2;99450;;;;
2021/12/21 13:00:01;;;;;;;2.1;3.7;;;;;;;0.3;48.3;99460;;;;
2021/12/21 13:10:00;;;;;;;2;5.4;;;;;;;-0.1;53.3;99480;;;;
2021/12/21 13:21:00;;;;;;;2;5.4;;;;;;;-0.9;58.4;99480;;;;
2021/12/21 13:32:00;;;;;;;2;5.4;;;;;;;-1;60.1;99500;;;;
2021/12/21 13:42:00;;;;;;;2.6;6.7;;;;;;;-0.8;60.6;99500;;;;
2021/12/21 13:52:00;;;;;;;2.6;6.7;;;;;;;-1.1;60.5;99480;;;;
2021/12/21 14:03:04;;;;;;;2.6;6.7;;;;;;;-1.4;61.1;99490;;;;
2021/12/21 14:13:00;;;;;;;3.3;9.1;;;;;;;-1.9;61.9;99490;;;;
2021/12/21 14:23:00;;;;;;;3.3;9.1;;;;;;;-2.3;63.2;99500;;;;
2021/12/21 14:33:09;;;;;;;13.8;26.4;;;;;;;-2.9;64.5;99500;;;;
2021/12/21 14:44:00;;;;;;;13.8;26.4;;;;;;;-3.4;66.5;99490;;;;
2021/12/21 14:54:04;;;;;;;13.8;26.4;;;;;;;-4;66.7;99490;;;;
2021/12/21 15:04:00;;;;;;;8.8;19.5;;;;;;;-4.5;67.8;99490;;;;
2021/12/21 15:15:00;;;;;;;8.8;19.5;;;;;;;-4.8;69.2;99500;;;;
2021/12/21 15:25:00;;;;;;;8.8;19.5;;;;;;;-4.9;70.2;99490;;;;
2021/12/21 15:35:01;;;;;;;8.5;15;;;;;;;-4.9;70.3;99500;;;;
2021/12/21 15:45:00;;;;;;;8.5;15;;;;;;;-5.1;70.4;99500;;;;
2021/12/21 15:55:00;;;;;;;8.5;15;;;;;;;-5.2;70.9;99500;;;;
2021/12/21 16:06:00;;;;;;;8;15.4;;;;;;;-5.1;71.2;99510;;;;
2021/12/21 16:16:00;;;;;;;8;15.4;;;;;;;-4.6;70.6;99520;;;;
2021/12/21 16:26:00;;;;;;;8;15.4;;;;;;;-4.3;70.5;99520;;;;
2021/12/21 16:36:00;;;;;;;11.1;21.9;;;;;;;-4;69.6;99510;;;;
2021/12/21 16:46:00;;;;;;;11.1;21.9;;;;;;;-3.8;69.6;99520;;;;
2021/12/21 16:56:00;;;;;;;11.1;21.9;;;;;;;-3.6;68.7;99510;;;;
2021/12/21 17:06:01;;;;;;;15.9;38;;;;;;;-3.7;68.5;99510;;;;
2021/12/21 17:17:00;;;;;;;15.9;38;;;;;;;-3.7;69.2;99510;;;;
2021/12/21 17:27:00;;;;;;;15.9;38;;;;;;;-3.7;69.9;99510;;;;
2021/12/21 17:37:00;;;;;;;15.8;26.9;;;;;;;-3.7;70.2;99510;;;;
2021/12/21 17:47:00;;;;;;;15.8;26.9;;;;;;;-3.7;68.9;99500;;;;
2021/12/21 17:58:00;;;;;;;15.8;26.9;;;;;;;-3.5;68.8;99510;;;;
2021/12/21 18:08:00;;;;;;;16.3;29.6;;;;;;;-3.5;68.3;99520;;;;
2021/12/21 18:19:00;;;;;;;16.3;29.6;;;;;;;-3.5;68.7;99520;;;;
2021/12/21 18:29:00;;;;;;;16.3;29.6;;;;;;;-3.6;69.1;99520;;;;
2021/12/21 18:39:01;;;;;;;13.4;24.1;;;;;;;-3.7;69.6;99510;;;;
2021/12/21 18:49:00;;;;;;;13.4;24.1;;;;;;;-3.7;70.1;99510;;;;
2021/12/21 18:59:00;;;;;;;13.4;24.1;;;;;;;-3.8;71.1;99520;;;;
2021/12/21 19:09:00;;;;;;;20.7;38.5;;;;;;;-3.7;70.9;99530;;;;
2021/12/21 19:19:00;;;;;;;20.7;38.5;;;;;;;-3.7;71.5;99520;;;;
2021/12/21 19:29:00;;;;;;;20.7;38.5;;;;;;;-3.6;71.9;99520;;;;
2021/12/21 19:39:00;;;;;;;20.8;35.3;;;;;;;-3.6;72.3;99540;;;;
2021/12/21 19:50:00;;;;;;;20.8;35.3;;;;;;;-3.5;72.2;99550;;;;
2021/12/21 20:01:00;;;;;;;20.8;35.3;;;;;;;-3.4;72.1;99560;;;;
2021/12/21 20:12:06;;;;;;;23.5;41.4;;;;;;;-3.3;72.3;99560;;;;
2021/12/21 20:22:00;;;;;;;23.5;41.4;;;;;;;-3.3;72.5;99570;;;;
2021/12/21 20:33:00;;;;;;;24.4;37.1;;;;;;;-3.4;72.4;99570;;;;
2021/12/21 20:43:01;;;;;;;24.4;37.1;;;;;;;-3.4;72.5;99570;;;;
2021/12/21 20:53:04;;;;;;;24.4;37.1;;;;;;;-3.5;73.2;99580;;;;
2021/12/21 21:03:00;;;;;;;23.8;40.2;;;;;;;-3.4;73.3;99580;;;;
2021/12/21 21:13:00;;;;;;;23.8;40.2;;;;;;;-3.4;73.5;99580;;;;
2021/12/21 21:24:00;;;;;;;23.8;40.2;;;;;;;-3.3;73.7;99600;;;;
2021/12/21 21:35:00;;;;;;;24.7;44.2;;;;;;;-3.3;74.1;99600;;;;
2021/12/21 21:46:00;;;;;;;24.7;44.2;;;;;;;-3.3;73.6;99590;;;;
2021/12/21 21:56:00;;;;;;;24.7;44.2;;;;;;;-3.2;73.6;99600;;;;
2021/12/21 22:06:00;;;;;;;28.7;47.8;;;;;;;-3.1;73.8;99610;;;;
2021/12/21 22:17:00;;;;;;;28.7;47.8;;;;;;;-3.1;73.7;99610;;;;
2021/12/21 22:27:00;;;;;;;28.7;47.8;;;;;;;-3.2;73.7;99610;;;;
2021/12/21 22:37:00;;;;;;;31.5;55.6;;;;;;;-3.2;73.9;99610;;;;
2021/12/21 22:47:00;;;;;;;31.5;55.6;;;;;;;-3.3;74.1;99600;;;;
2021/12/21 22:57:01;;;;;;;31.5;55.6;;;;;;;-3.5;74.9;99600;;;;
2021/12/21 23:08:00;;;;;;;29.5;50.4;;;;;;;-3.5;75.1;99600;;;;
2021/12/21 23:18:00;;;;;;;29.5;50.4;;;;;;;-3.4;74.8;99600;;;;
2021/12/21 23:29:00;;;;;;;29.5;50.4;;;;;;;-3.4;74.8;99610;;;;
2021/12/21 23:39:00;;;;;;;21.5;38.1;;;;;;;-3.4;74.7;99620;;;;
2021/12/21 23:50:00;;;;;;;21.5;38.1;;;;;;;-3.4;74.5;99630;;;;
